sensor_id;sensor_type;location;lat;lon;timestamp;P1;durP1;ratioP1;P2;durP2;ratioP2
41263;SDS011;26998;48.714;9.414;2023-07-13T00:02:21;4.72;;;2.20;;
41263;SDS011;26998;48.714;9.414;2023-07-13T00:04:48;5.20;;;2.10;;
41263;SDS011;26998;48.714;9.414;2023-07-13T00:07:15;2.75;;;1.88;;
41263;SDS011;26998;48.714;9.414;2023-07-13T00:09:41;5.30;;;2.10;;
41263;SDS011;26998;48.714;9.414;2023-07-13T00:12:28;3.63;;;1.80;;
41263;SDS011;26998;48.714;9.414;2023-07-13T00:14:58;4.82;;;1.45;;
41263;SDS011;26998;48.714;9.414;2023-07-13T00:17:27;5.20;;;2.15;;
41263;SDS011;26998;48.714;9.414;2023-07-13T00:19:55;4.60;;;1.92;;
41263;SDS011;26998;48.714;9.414;2023-07-13T00:22:23;3.83;;;2.03;;
41263;SDS011;26998;48.714;9.414;2023-07-13T00:24:50;3.70;;;2.50;;
41263;SDS011;26998;48.714;9.414;2023-07-13T00:27:18;5.53;;;3.35;;
41263;SDS011;26998;48.714;9.414;2023-07-13T00:29:45;5.53;;;2.80;;
41263;SDS011;26998;48.714;9.414;2023-07-13T00:32:11;6.93;;;2.88;;
41263;SDS011;26998;48.714;9.414;2023-07-13T00:34:38;4.10;;;2.85;;
41263;SDS011;26998;48.714;9.414;2023-07-13T00:37:06;4.30;;;2.28;;
41263;SDS011;26998;48.714;9.414;2023-07-13T00:39:33;6.63;;;1.75;;
41263;SDS011;26998;48.714;9.414;2023-07-13T00:42:01;2.85;;;1.73;;
41263;SDS011;26998;48.714;9.414;2023-07-13T00:44:28;2.65;;;1.85;;
41263;SDS011;26998;48.714;9.414;2023-07-13T00:46:58;5.70;;;1.88;;
41263;SDS011;26998;48.714;9.414;2023-07-13T00:49:25;5.90;;;2.03;;
41263;SDS011;26998;48.714;9.414;2023-07-13T00:52:03;4.72;;;1.80;;
41263;SDS011;26998;48.714;9.414;2023-07-13T00:54:36;4.57;;;2.03;;
41263;SDS011;26998;48.714;9.414;2023-07-13T00:57:06;4.53;;;1.48;;
41263;SDS011;26998;48.714;9.414;2023-07-13T00:59:35;3.23;;;1.73;;
41263;SDS011;26998;48.714;9.414;2023-07-13T01:02:06;2.92;;;1.83;;
41263;SDS011;26998;48.714;9.414;2023-07-13T01:04:33;3.72;;;1.92;;
41263;SDS011;26998;48.714;9.414;2023-07-13T01:07:01;5.88;;;1.73;;
41263;SDS011;26998;48.714;9.414;2023-07-13T01:09:27;2.50;;;1.30;;
41263;SDS011;26998;48.714;9.414;2023-07-13T01:11:54;2.55;;;1.40;;
41263;SDS011;26998;48.714;9.414;2023-07-13T01:14:20;7.00;;;2.08;;
41263;SDS011;26998;48.714;9.414;2023-07-13T01:16:47;2.40;;;1.42;;
41263;SDS011;26998;48.714;9.414;2023-07-13T01:22:00;4.05;;;1.67;;
41263;SDS011;26998;48.714;9.414;2023-07-13T01:24:26;3.75;;;1.48;;
41263;SDS011;26998;48.714;9.414;2023-07-13T01:26:53;3.67;;;1.42;;
41263;SDS011;26998;48.714;9.414;2023-07-13T01:29:20;2.70;;;1.98;;
41263;SDS011;26998;48.714;9.414;2023-07-13T01:31:49;5.43;;;1.83;;
41263;SDS011;26998;48.714;9.414;2023-07-13T01:34:16;3.10;;;1.42;;
41263;SDS011;26998;48.714;9.414;2023-07-13T01:36:43;1.50;;;1.27;;
41263;SDS011;26998;48.714;9.414;2023-07-13T01:39:09;3.20;;;1.52;;
41263;SDS011;26998;48.714;9.414;2023-07-13T01:41:36;3.63;;;1.70;;
41263;SDS011;26998;48.714;9.414;2023-07-13T01:44:03;2.72;;;1.48;;
41263;SDS011;26998;48.714;9.414;2023-07-13T01:46:29;4.00;;;1.55;;
41263;SDS011;26998;48.714;9.414;2023-07-13T01:48:57;3.42;;;1.40;;
41263;SDS011;26998;48.714;9.414;2023-07-13T01:51:24;2.30;;;1.45;;
41263;SDS011;26998;48.714;9.414;2023-07-13T01:53:51;4.95;;;1.77;;
41263;SDS011;26998;48.714;9.414;2023-07-13T01:56:17;2.70;;;1.77;;
41263;SDS011;26998;48.714;9.414;2023-07-13T01:58:44;4.50;;;1.55;;
41263;SDS011;26998;48.714;9.414;2023-07-13T02:01:11;4.90;;;1.60;;
41263;SDS011;26998;48.714;9.414;2023-07-13T02:03:38;4.35;;;1.52;;
41263;SDS011;26998;48.714;9.414;2023-07-13T02:06:05;5.88;;;1.38;;
41263;SDS011;26998;48.714;9.414;2023-07-13T02:08:32;2.60;;;1.63;;
41263;SDS011;26998;48.714;9.414;2023-07-13T02:10:59;1.67;;;1.40;;
41263;SDS011;26998;48.714;9.414;2023-07-13T02:13:26;4.38;;;1.70;;
41263;SDS011;26998;48.714;9.414;2023-07-13T02:15:53;5.93;;;1.33;;
41263;SDS011;26998;48.714;9.414;2023-07-13T02:18:20;2.45;;;1.35;;
41263;SDS011;26998;48.714;9.414;2023-07-13T02:20:48;4.45;;;1.90;;
41263;SDS011;26998;48.714;9.414;2023-07-13T02:23:15;1.98;;;1.40;;
41263;SDS011;26998;48.714;9.414;2023-07-13T02:25:42;3.65;;;1.30;;
41263;SDS011;26998;48.714;9.414;2023-07-13T02:28:11;2.23;;;1.33;;
41263;SDS011;26998;48.714;9.414;2023-07-13T02:30:38;5.45;;;1.90;;
41263;SDS011;26998;48.714;9.414;2023-07-13T02:33:07;2.95;;;1.13;;
41263;SDS011;26998;48.714;9.414;2023-07-13T02:35:37;4.18;;;1.92;;
41263;SDS011;26998;48.714;9.414;2023-07-13T02:38:04;5.95;;;1.67;;
41263;SDS011;26998;48.714;9.414;2023-07-13T02:40:30;6.25;;;1.75;;
41263;SDS011;26998;48.714;9.414;2023-07-13T02:42:57;2.38;;;1.60;;
41263;SDS011;26998;48.714;9.414;2023-07-13T02:45:23;2.00;;;1.40;;
41263;SDS011;26998;48.714;9.414;2023-07-13T02:47:50;2.92;;;1.50;;
41263;SDS011;26998;48.714;9.414;2023-07-13T02:50:17;2.50;;;1.80;;
41263;SDS011;26998;48.714;9.414;2023-07-13T02:52:44;3.50;;;1.58;;
41263;SDS011;26998;48.714;9.414;2023-07-13T02:55:10;6.50;;;2.30;;
41263;SDS011;26998;48.714;9.414;2023-07-13T02:57:37;4.68;;;1.60;;
41263;SDS011;26998;48.714;9.414;2023-07-13T03:00:04;3.15;;;2.08;;
41263;SDS011;26998;48.714;9.414;2023-07-13T03:02:32;4.60;;;2.10;;
41263;SDS011;26998;48.714;9.414;2023-07-13T03:04:58;2.88;;;2.05;;
41263;SDS011;26998;48.714;9.414;2023-07-13T03:07:25;2.55;;;1.52;;
41263;SDS011;26998;48.714;9.414;2023-07-13T03:09:55;4.25;;;1.63;;
41263;SDS011;26998;48.714;9.414;2023-07-13T03:12:23;3.72;;;1.60;;
41263;SDS011;26998;48.714;9.414;2023-07-13T03:14:50;3.10;;;1.48;;
41263;SDS011;26998;48.714;9.414;2023-07-13T03:17:17;5.95;;;1.55;;
41263;SDS011;26998;48.714;9.414;2023-07-13T03:19:45;3.78;;;1.58;;
41263;SDS011;26998;48.714;9.414;2023-07-13T03:22:12;4.20;;;1.60;;
41263;SDS011;26998;48.714;9.414;2023-07-13T03:24:39;6.35;;;1.60;;
41263;SDS011;26998;48.714;9.414;2023-07-13T03:27:05;5.55;;;1.73;;
41263;SDS011;26998;48.714;9.414;2023-07-13T03:29:32;3.65;;;1.63;;
41263;SDS011;26998;48.714;9.414;2023-07-13T03:31:59;4.40;;;1.70;;
41263;SDS011;26998;48.714;9.414;2023-07-13T03:34:26;8.10;;;1.95;;
41263;SDS011;26998;48.714;9.414;2023-07-13T03:36:55;6.05;;;1.95;;
41263;SDS011;26998;48.714;9.414;2023-07-13T03:39:24;8.65;;;2.20;;
41263;SDS011;26998;48.714;9.414;2023-07-13T03:41:50;2.58;;;1.70;;
41263;SDS011;26998;48.714;9.414;2023-07-13T03:44:17;4.18;;;1.85;;
41263;SDS011;26998;48.714;9.414;2023-07-13T03:46:46;5.32;;;2.10;;
41263;SDS011;26998;48.714;9.414;2023-07-13T03:49:13;4.68;;;2.70;;
41263;SDS011;26998;48.714;9.414;2023-07-13T03:51:39;5.72;;;2.60;;
41263;SDS011;26998;48.714;9.414;2023-07-13T03:54:06;4.10;;;1.98;;
41263;SDS011;26998;48.714;9.414;2023-07-13T03:56:32;4.95;;;2.60;;
41263;SDS011;26998;48.714;9.414;2023-07-13T03:59:00;6.75;;;2.58;;
41263;SDS011;26998;48.714;9.414;2023-07-13T04:01:26;4.30;;;1.65;;
41263;SDS011;26998;48.714;9.414;2023-07-13T04:03:53;4.32;;;2.22;;
41263;SDS011;26998;48.714;9.414;2023-07-13T04:06:21;6.10;;;2.25;;
41263;SDS011;26998;48.714;9.414;2023-07-13T04:08:50;2.75;;;2.08;;
41263;SDS011;26998;48.714;9.414;2023-07-13T04:11:20;7.45;;;2.05;;
41263;SDS011;26998;48.714;9.414;2023-07-13T04:13:48;4.28;;;1.83;;
41263;SDS011;26998;48.714;9.414;2023-07-13T04:16:15;4.22;;;2.00;;
41263;SDS011;26998;48.714;9.414;2023-07-13T04:18:43;6.72;;;2.25;;
41263;SDS011;26998;48.714;9.414;2023-07-13T04:21:11;4.38;;;2.10;;
41263;SDS011;26998;48.714;9.414;2023-07-13T04:23:38;4.63;;;1.90;;
41263;SDS011;26998;48.714;9.414;2023-07-13T04:26:05;3.45;;;2.10;;
41263;SDS011;26998;48.714;9.414;2023-07-13T04:28:33;4.70;;;2.90;;
41263;SDS011;26998;48.714;9.414;2023-07-13T04:31:00;4.32;;;2.60;;
41263;SDS011;26998;48.714;9.414;2023-07-13T04:33:30;4.32;;;2.85;;
41263;SDS011;26998;48.714;9.414;2023-07-13T04:35:57;6.00;;;3.33;;
41263;SDS011;26998;48.714;9.414;2023-07-13T04:38:28;12.32;;;5.15;;
41263;SDS011;26998;48.714;9.414;2023-07-13T04:40:56;8.02;;;4.60;;
41263;SDS011;26998;48.714;9.414;2023-07-13T04:43:24;10.00;;;4.80;;
41263;SDS011;26998;48.714;9.414;2023-07-13T04:45:51;11.27;;;5.20;;
41263;SDS011;26998;48.714;9.414;2023-07-13T04:48:19;13.20;;;6.45;;
41263;SDS011;26998;48.714;9.414;2023-07-13T04:50:46;10.55;;;6.25;;
41263;SDS011;26998;48.714;9.414;2023-07-13T04:53:13;14.05;;;9.07;;
41263;SDS011;26998;48.714;9.414;2023-07-13T04:55:40;14.00;;;10.63;;
41263;SDS011;26998;48.714;9.414;2023-07-13T04:58:07;9.80;;;7.00;;
41263;SDS011;26998;48.714;9.414;2023-07-13T05:00:33;9.45;;;5.93;;
41263;SDS011;26998;48.714;9.414;2023-07-13T05:03:00;7.97;;;4.03;;
41263;SDS011;26998;48.714;9.414;2023-07-13T05:05:27;7.63;;;2.20;;
41263;SDS011;26998;48.714;9.414;2023-07-13T05:07:55;4.38;;;1.70;;
41263;SDS011;26998;48.714;9.414;2023-07-13T05:10:22;5.72;;;1.88;;
41263;SDS011;26998;48.714;9.414;2023-07-13T05:12:49;3.42;;;2.10;;
41263;SDS011;26998;48.714;9.414;2023-07-13T05:15:17;10.30;;;3.47;;
41263;SDS011;26998;48.714;9.414;2023-07-13T05:17:44;6.82;;;2.80;;
41263;SDS011;26998;48.714;9.414;2023-07-13T05:20:11;3.88;;;2.50;;
41263;SDS011;26998;48.714;9.414;2023-07-13T05:22:38;5.43;;;2.50;;
41263;SDS011;26998;48.714;9.414;2023-07-13T05:25:05;7.35;;;2.20;;
41263;SDS011;26998;48.714;9.414;2023-07-13T05:27:33;8.20;;;2.28;;
41263;SDS011;26998;48.714;9.414;2023-07-13T05:30:00;8.07;;;2.40;;
41263;SDS011;26998;48.714;9.414;2023-07-13T05:32:28;8.75;;;2.20;;
41263;SDS011;26998;48.714;9.414;2023-07-13T05:34:54;9.02;;;2.13;;
41263;SDS011;26998;48.714;9.414;2023-07-13T05:37:21;2.95;;;1.73;;
41263;SDS011;26998;48.714;9.414;2023-07-13T05:39:48;8.60;;;1.98;;
41263;SDS011;26998;48.714;9.414;2023-07-13T05:42:14;8.45;;;2.50;;
41263;SDS011;26998;48.714;9.414;2023-07-13T05:44:41;7.72;;;2.85;;
41263;SDS011;26998;48.714;9.414;2023-07-13T05:47:10;16.00;;;3.28;;
41263;SDS011;26998;48.714;9.414;2023-07-13T05:49:37;21.63;;;3.03;;
41263;SDS011;26998;48.714;9.414;2023-07-13T05:52:04;9.10;;;2.70;;
41263;SDS011;26998;48.714;9.414;2023-07-13T05:54:31;12.13;;;2.38;;
41263;SDS011;26998;48.714;9.414;2023-07-13T05:56:58;5.22;;;2.65;;
41263;SDS011;26998;48.714;9.414;2023-07-13T05:59:25;3.05;;;2.10;;
41263;SDS011;26998;48.714;9.414;2023-07-13T06:01:51;5.80;;;2.45;;
41263;SDS011;26998;48.714;9.414;2023-07-13T06:04:19;4.80;;;2.25;;
41263;SDS011;26998;48.714;9.414;2023-07-13T06:06:46;7.03;;;2.42;;
41263;SDS011;26998;48.714;9.414;2023-07-13T06:09:14;6.07;;;2.80;;
41263;SDS011;26998;48.714;9.414;2023-07-13T06:11:40;5.72;;;2.42;;
41263;SDS011;26998;48.714;9.414;2023-07-13T06:14:07;4.70;;;3.00;;
41263;SDS011;26998;48.714;9.414;2023-07-13T06:16:33;6.00;;;2.90;;
41263;SDS011;26998;48.714;9.414;2023-07-13T06:19:00;5.93;;;2.80;;
41263;SDS011;26998;48.714;9.414;2023-07-13T06:21:26;6.53;;;3.25;;
41263;SDS011;26998;48.714;9.414;2023-07-13T06:23:53;5.25;;;2.40;;
41263;SDS011;26998;48.714;9.414;2023-07-13T06:26:20;8.55;;;2.67;;
41263;SDS011;26998;48.714;9.414;2023-07-13T06:28:47;9.00;;;2.80;;
41263;SDS011;26998;48.714;9.414;2023-07-13T06:31:14;17.33;;;4.22;;
41263;SDS011;26998;48.714;9.414;2023-07-13T06:33:42;5.90;;;2.63;;
41263;SDS011;26998;48.714;9.414;2023-07-13T06:36:09;8.70;;;2.67;;
41263;SDS011;26998;48.714;9.414;2023-07-13T06:38:36;5.40;;;2.20;;
41263;SDS011;26998;48.714;9.414;2023-07-13T06:41:03;4.63;;;2.00;;
41263;SDS011;26998;48.714;9.414;2023-07-13T06:43:31;4.20;;;1.70;;
41263;SDS011;26998;48.714;9.414;2023-07-13T06:45:57;2.42;;;1.80;;
41263;SDS011;26998;48.714;9.414;2023-07-13T06:48:24;6.22;;;2.03;;
41263;SDS011;26998;48.714;9.414;2023-07-13T06:50:50;8.10;;;1.80;;
41263;SDS011;26998;48.714;9.414;2023-07-13T06:53:17;4.72;;;2.42;;
41263;SDS011;26998;48.714;9.414;2023-07-13T06:55:45;5.95;;;1.83;;
41263;SDS011;26998;48.714;9.414;2023-07-13T06:58:12;5.60;;;2.30;;
41263;SDS011;26998;48.714;9.414;2023-07-13T07:00:40;8.38;;;2.15;;
41263;SDS011;26998;48.714;9.414;2023-07-13T07:03:07;7.38;;;2.80;;
41263;SDS011;26998;48.714;9.414;2023-07-13T07:05:34;20.00;;;4.05;;
41263;SDS011;26998;48.714;9.414;2023-07-13T07:08:01;9.52;;;3.33;;
41263;SDS011;26998;48.714;9.414;2023-07-13T07:10:29;5.25;;;2.10;;
41263;SDS011;26998;48.714;9.414;2023-07-13T07:12:57;6.20;;;2.38;;
41263;SDS011;26998;48.714;9.414;2023-07-13T07:15:26;3.90;;;1.90;;
41263;SDS011;26998;48.714;9.414;2023-07-13T07:17:54;4.15;;;2.10;;
41263;SDS011;26998;48.714;9.414;2023-07-13T07:20:21;3.95;;;2.47;;
41263;SDS011;26998;48.714;9.414;2023-07-13T07:22:48;7.75;;;1.90;;
41263;SDS011;26998;48.714;9.414;2023-07-13T07:25:15;5.93;;;1.63;;
41263;SDS011;26998;48.714;9.414;2023-07-13T07:27:42;5.80;;;2.17;;
41263;SDS011;26998;48.714;9.414;2023-07-13T07:30:13;4.53;;;2.20;;
41263;SDS011;26998;48.714;9.414;2023-07-13T07:32:43;5.63;;;2.10;;
41263;SDS011;26998;48.714;9.414;2023-07-13T07:35:12;5.83;;;2.50;;
41263;SDS011;26998;48.714;9.414;2023-07-13T07:37:41;4.03;;;2.08;;
41263;SDS011;26998;48.714;9.414;2023-07-13T07:40:11;9.18;;;2.30;;
41263;SDS011;26998;48.714;9.414;2023-07-13T07:42:40;3.83;;;1.50;;
41263;SDS011;26998;48.714;9.414;2023-07-13T07:45:07;9.93;;;1.80;;
41263;SDS011;26998;48.714;9.414;2023-07-13T07:47:34;6.05;;;1.70;;
41263;SDS011;26998;48.714;9.414;2023-07-13T07:50:01;5.53;;;1.70;;
41263;SDS011;26998;48.714;9.414;2023-07-13T07:52:27;4.03;;;1.80;;
41263;SDS011;26998;48.714;9.414;2023-07-13T07:54:55;3.38;;;2.05;;
41263;SDS011;26998;48.714;9.414;2023-07-13T07:57:41;5.78;;;2.10;;
41263;SDS011;26998;48.714;9.414;2023-07-13T08:00:11;10.07;;;2.92;;
41263;SDS011;26998;48.714;9.414;2023-07-13T08:02:41;7.50;;;2.38;;
41263;SDS011;26998;48.714;9.414;2023-07-13T08:05:28;5.95;;;2.92;;
41263;SDS011;26998;48.714;9.414;2023-07-13T08:07:57;4.63;;;2.20;;
41263;SDS011;26998;48.714;9.414;2023-07-13T08:10:27;2.63;;;1.60;;
41263;SDS011;26998;48.714;9.414;2023-07-13T08:12:54;3.03;;;1.48;;
41263;SDS011;26998;48.714;9.414;2023-07-13T08:15:23;3.72;;;1.80;;
41263;SDS011;26998;48.714;9.414;2023-07-13T08:17:50;5.15;;;1.80;;
41263;SDS011;26998;48.714;9.414;2023-07-13T08:20:17;4.15;;;1.60;;
41263;SDS011;26998;48.714;9.414;2023-07-13T08:22:43;1.98;;;1.42;;
41263;SDS011;26998;48.714;9.414;2023-07-13T08:25:10;5.05;;;1.42;;
41263;SDS011;26998;48.714;9.414;2023-07-13T08:27:36;5.18;;;2.10;;
41263;SDS011;26998;48.714;9.414;2023-07-13T08:30:05;6.18;;;2.42;;
41263;SDS011;26998;48.714;9.414;2023-07-13T08:32:31;4.68;;;1.65;;
41263;SDS011;26998;48.714;9.414;2023-07-13T08:34:58;4.95;;;1.80;;
41263;SDS011;26998;48.714;9.414;2023-07-13T08:37:25;4.15;;;1.63;;
41263;SDS011;26998;48.714;9.414;2023-07-13T08:39:53;5.38;;;1.70;;
41263;SDS011;26998;48.714;9.414;2023-07-13T08:42:33;3.78;;;1.65;;
41263;SDS011;26998;48.714;9.414;2023-07-13T08:48:28;2.75;;;1.20;;
41263;SDS011;26998;48.714;9.414;2023-07-13T08:51:09;5.03;;;1.60;;
41263;SDS011;26998;48.714;9.414;2023-07-13T08:53:45;2.80;;;1.30;;
41263;SDS011;26998;48.714;9.414;2023-07-13T08:56:17;2.20;;;1.67;;
41263;SDS011;26998;48.714;9.414;2023-07-13T08:58:47;4.70;;;1.40;;
41263;SDS011;26998;48.714;9.414;2023-07-13T09:04:14;9.73;;;2.13;;
41263;SDS011;26998;48.714;9.414;2023-07-13T09:06:49;5.35;;;1.40;;
41263;SDS011;26998;48.714;9.414;2023-07-13T09:14:52;4.70;;;1.65;;
41263;SDS011;26998;48.714;9.414;2023-07-13T09:17:22;5.65;;;1.55;;
41263;SDS011;26998;48.714;9.414;2023-07-13T09:19:57;5.85;;;1.80;;
41263;SDS011;26998;48.714;9.414;2023-07-13T09:22:29;3.30;;;1.30;;
41263;SDS011;26998;48.714;9.414;2023-07-13T09:25:02;4.05;;;1.40;;
41263;SDS011;26998;48.714;9.414;2023-07-13T09:27:38;13.48;;;2.72;;
41263;SDS011;26998;48.714;9.414;2023-07-13T09:32:42;4.28;;;1.35;;
41263;SDS011;26998;48.714;9.414;2023-07-13T09:35:15;8.15;;;1.83;;
41263;SDS011;26998;48.714;9.414;2023-07-13T09:37:45;5.13;;;2.10;;
41263;SDS011;26998;48.714;9.414;2023-07-13T09:40:20;5.43;;;1.80;;
41263;SDS011;26998;48.714;9.414;2023-07-13T09:42:52;7.05;;;1.63;;
41263;SDS011;26998;48.714;9.414;2023-07-13T09:45:26;10.95;;;2.45;;
41263;SDS011;26998;48.714;9.414;2023-07-13T09:48:04;4.32;;;1.60;;
41263;SDS011;26998;48.714;9.414;2023-07-13T09:50:32;8.63;;;1.95;;
41263;SDS011;26998;48.714;9.414;2023-07-13T09:53:00;2.35;;;1.48;;
41263;SDS011;26998;48.714;9.414;2023-07-13T09:55:31;6.35;;;1.70;;
41263;SDS011;26998;48.714;9.414;2023-07-13T09:58:05;2.75;;;1.38;;
41263;SDS011;26998;48.714;9.414;2023-07-13T10:00:40;3.10;;;1.55;;
41263;SDS011;26998;48.714;9.414;2023-07-13T10:03:23;7.07;;;1.75;;
41263;SDS011;26998;48.714;9.414;2023-07-13T10:05:54;6.93;;;1.95;;
41263;SDS011;26998;48.714;9.414;2023-07-13T10:08:34;3.10;;;1.52;;
41263;SDS011;26998;48.714;9.414;2023-07-13T10:11:02;5.75;;;1.92;;
41263;SDS011;26998;48.714;9.414;2023-07-13T10:13:45;2.42;;;1.40;;
41263;SDS011;26998;48.714;9.414;2023-07-13T10:16:17;5.63;;;1.98;;
41263;SDS011;26998;48.714;9.414;2023-07-13T10:18:46;3.85;;;1.45;;
41263;SDS011;26998;48.714;9.414;2023-07-13T10:21:22;5.43;;;1.75;;
41263;SDS011;26998;48.714;9.414;2023-07-13T10:26:46;5.47;;;1.67;;
41263;SDS011;26998;48.714;9.414;2023-07-13T10:29:29;4.97;;;1.63;;
41263;SDS011;26998;48.714;9.414;2023-07-13T10:32:08;3.47;;;1.67;;
41263;SDS011;26998;48.714;9.414;2023-07-13T10:34:38;4.00;;;1.85;;
41263;SDS011;26998;48.714;9.414;2023-07-13T10:37:07;6.00;;;1.52;;
41263;SDS011;26998;48.714;9.414;2023-07-13T10:39:45;6.47;;;1.70;;
41263;SDS011;26998;48.714;9.414;2023-07-13T10:42:13;3.17;;;1.45;;
41263;SDS011;26998;48.714;9.414;2023-07-13T10:44:44;2.33;;;1.65;;
41263;SDS011;26998;48.714;9.414;2023-07-13T10:47:12;3.65;;;1.60;;
41263;SDS011;26998;48.714;9.414;2023-07-13T10:49:42;4.00;;;1.75;;
41263;SDS011;26998;48.714;9.414;2023-07-13T10:52:37;3.28;;;1.30;;
41263;SDS011;26998;48.714;9.414;2023-07-13T10:58:13;5.78;;;1.70;;
41263;SDS011;26998;48.714;9.414;2023-07-13T11:18:48;22.65;;;3.58;;
41263;SDS011;26998;48.714;9.414;2023-07-13T11:21:23;7.28;;;2.05;;
41263;SDS011;26998;48.714;9.414;2023-07-13T11:24:04;4.57;;;1.63;;
41263;SDS011;26998;48.714;9.414;2023-07-13T11:29:31;4.47;;;1.40;;
41263;SDS011;26998;48.714;9.414;2023-07-13T11:32:20;5.07;;;1.85;;
41263;SDS011;26998;48.714;9.414;2023-07-13T11:34:49;2.42;;;1.45;;
41263;SDS011;26998;48.714;9.414;2023-07-13T11:37:16;3.75;;;1.60;;
41263;SDS011;26998;48.714;9.414;2023-07-13T11:39:45;4.60;;;2.10;;
41263;SDS011;26998;48.714;9.414;2023-07-13T11:42:16;12.52;;;2.33;;
41263;SDS011;26998;48.714;9.414;2023-07-13T11:44:49;8.55;;;1.85;;
41263;SDS011;26998;48.714;9.414;2023-07-13T11:50:06;6.03;;;1.98;;
41263;SDS011;26998;48.714;9.414;2023-07-13T11:52:44;6.25;;;2.00;;
41263;SDS011;26998;48.714;9.414;2023-07-13T11:55:14;3.25;;;1.60;;
41263;SDS011;26998;48.714;9.414;2023-07-13T11:57:45;3.97;;;1.67;;
41263;SDS011;26998;48.714;9.414;2023-07-13T12:00:18;1.75;;;1.23;;
41263;SDS011;26998;48.714;9.414;2023-07-13T12:02:51;2.75;;;1.33;;
41263;SDS011;26998;48.714;9.414;2023-07-13T12:05:20;4.65;;;1.30;;
41263;SDS011;26998;48.714;9.414;2023-07-13T12:07:49;7.82;;;1.73;;
41263;SDS011;26998;48.714;9.414;2023-07-13T12:10:21;4.88;;;1.33;;
41263;SDS011;26998;48.714;9.414;2023-07-13T12:12:53;4.47;;;1.10;;
41263;SDS011;26998;48.714;9.414;2023-07-13T12:15:26;5.18;;;1.83;;
41263;SDS011;26998;48.714;9.414;2023-07-13T12:18:15;3.03;;;1.45;;
41263;SDS011;26998;48.714;9.414;2023-07-13T12:20:45;4.70;;;1.80;;
41263;SDS011;26998;48.714;9.414;2023-07-13T12:23:32;5.93;;;2.10;;
41263;SDS011;26998;48.714;9.414;2023-07-13T12:26:02;2.78;;;1.48;;
41263;SDS011;26998;48.714;9.414;2023-07-13T12:28:32;7.10;;;1.60;;
41263;SDS011;26998;48.714;9.414;2023-07-13T12:31:04;3.28;;;1.55;;
41263;SDS011;26998;48.714;9.414;2023-07-13T12:33:33;3.70;;;1.40;;
41263;SDS011;26998;48.714;9.414;2023-07-13T12:36:02;3.75;;;1.33;;
41263;SDS011;26998;48.714;9.414;2023-07-13T12:38:31;2.85;;;1.60;;
41263;SDS011;26998;48.714;9.414;2023-07-13T12:40:59;2.05;;;1.60;;
41263;SDS011;26998;48.714;9.414;2023-07-13T12:43:28;2.53;;;1.90;;
41263;SDS011;26998;48.714;9.414;2023-07-13T12:46:02;6.07;;;2.05;;
41263;SDS011;26998;48.714;9.414;2023-07-13T12:48:51;5.90;;;1.85;;
41263;SDS011;26998;48.714;9.414;2023-07-13T12:51:38;5.25;;;1.58;;
41263;SDS011;26998;48.714;9.414;2023-07-13T12:54:12;6.97;;;2.00;;
41263;SDS011;26998;48.714;9.414;2023-07-13T12:56:45;6.97;;;1.58;;
41263;SDS011;26998;48.714;9.414;2023-07-13T12:59:19;7.32;;;1.67;;
41263;SDS011;26998;48.714;9.414;2023-07-13T13:01:47;10.05;;;1.45;;
41263;SDS011;26998;48.714;9.414;2023-07-13T13:04:16;4.13;;;1.45;;
41263;SDS011;26998;48.714;9.414;2023-07-13T13:06:43;2.63;;;1.48;;
41263;SDS011;26998;48.714;9.414;2023-07-13T13:09:14;3.83;;;1.80;;
41263;SDS011;26998;48.714;9.414;2023-07-13T13:11:42;8.35;;;1.98;;
41263;SDS011;26998;48.714;9.414;2023-07-13T13:14:08;3.00;;;1.95;;
41263;SDS011;26998;48.714;9.414;2023-07-13T13:16:37;3.92;;;1.70;;
41263;SDS011;26998;48.714;9.414;2023-07-13T13:19:13;17.23;;;1.92;;
41263;SDS011;26998;48.714;9.414;2023-07-13T13:21:42;6.88;;;1.63;;
41263;SDS011;26998;48.714;9.414;2023-07-13T13:24:16;5.07;;;1.47;;
41263;SDS011;26998;48.714;9.414;2023-07-13T13:26:45;6.72;;;1.92;;
41263;SDS011;26998;48.714;9.414;2023-07-13T13:29:21;5.72;;;1.88;;
41263;SDS011;26998;48.714;9.414;2023-07-13T13:31:50;7.38;;;2.00;;
41263;SDS011;26998;48.714;9.414;2023-07-13T13:34:17;4.50;;;1.42;;
41263;SDS011;26998;48.714;9.414;2023-07-13T13:36:45;5.28;;;1.90;;
41263;SDS011;26998;48.714;9.414;2023-07-13T13:39:22;3.10;;;1.55;;
41263;SDS011;26998;48.714;9.414;2023-07-13T13:41:51;3.40;;;1.45;;
41263;SDS011;26998;48.714;9.414;2023-07-13T13:44:20;6.30;;;2.22;;
41263;SDS011;26998;48.714;9.414;2023-07-13T13:46:48;5.72;;;1.75;;
41263;SDS011;26998;48.714;9.414;2023-07-13T13:51:46;6.30;;;2.17;;
41263;SDS011;26998;48.714;9.414;2023-07-13T13:54:15;4.55;;;1.70;;
41263;SDS011;26998;48.714;9.414;2023-07-13T13:56:43;3.45;;;1.60;;
41263;SDS011;26998;48.714;9.414;2023-07-13T13:59:12;6.38;;;1.90;;
41263;SDS011;26998;48.714;9.414;2023-07-13T14:01:39;5.97;;;1.27;;
41263;SDS011;26998;48.714;9.414;2023-07-13T14:04:09;4.20;;;1.35;;
41263;SDS011;26998;48.714;9.414;2023-07-13T14:06:41;6.82;;;2.10;;
41263;SDS011;26998;48.714;9.414;2023-07-13T14:09:11;4.05;;;1.70;;
41263;SDS011;26998;48.714;9.414;2023-07-13T14:11:39;6.82;;;1.80;;
41263;SDS011;26998;48.714;9.414;2023-07-13T14:14:07;3.22;;;1.95;;
41263;SDS011;26998;48.714;9.414;2023-07-13T14:16:38;5.50;;;1.50;;
41263;SDS011;26998;48.714;9.414;2023-07-13T14:19:04;3.20;;;1.65;;
41263;SDS011;26998;48.714;9.414;2023-07-13T14:21:31;4.05;;;1.75;;
41263;SDS011;26998;48.714;9.414;2023-07-13T14:23:57;3.67;;;1.33;;
41263;SDS011;26998;48.714;9.414;2023-07-13T14:26:24;4.63;;;1.55;;
41263;SDS011;26998;48.714;9.414;2023-07-13T14:28:54;6.83;;;1.90;;
41263;SDS011;26998;48.714;9.414;2023-07-13T14:31:23;4.55;;;1.30;;
41263;SDS011;26998;48.714;9.414;2023-07-13T14:33:56;7.03;;;1.50;;
41263;SDS011;26998;48.714;9.414;2023-07-13T14:36:25;3.10;;;1.52;;
41263;SDS011;26998;48.714;9.414;2023-07-13T14:39:01;4.68;;;1.70;;
41263;SDS011;26998;48.714;9.414;2023-07-13T14:41:31;5.57;;;1.70;;
41263;SDS011;26998;48.714;9.414;2023-07-13T14:43:58;2.67;;;1.63;;
41263;SDS011;26998;48.714;9.414;2023-07-13T14:46:28;5.40;;;1.80;;
41263;SDS011;26998;48.714;9.414;2023-07-13T14:49:31;3.33;;;1.60;;
41263;SDS011;26998;48.714;9.414;2023-07-13T14:52:17;3.97;;;1.95;;
41263;SDS011;26998;48.714;9.414;2023-07-13T14:54:45;3.72;;;2.05;;
41263;SDS011;26998;48.714;9.414;2023-07-13T14:57:13;3.28;;;1.40;;
41263;SDS011;26998;48.714;9.414;2023-07-13T14:59:40;4.50;;;1.65;;
41263;SDS011;26998;48.714;9.414;2023-07-13T15:02:14;2.97;;;1.52;;
41263;SDS011;26998;48.714;9.414;2023-07-13T15:04:44;3.35;;;1.70;;
41263;SDS011;26998;48.714;9.414;2023-07-13T15:07:11;3.60;;;1.38;;
41263;SDS011;26998;48.714;9.414;2023-07-13T15:09:37;5.13;;;1.60;;
41263;SDS011;26998;48.714;9.414;2023-07-13T15:12:04;5.00;;;1.50;;
41263;SDS011;26998;48.714;9.414;2023-07-13T15:14:32;4.25;;;1.63;;
41263;SDS011;26998;48.714;9.414;2023-07-13T15:16:58;5.15;;;1.63;;
41263;SDS011;26998;48.714;9.414;2023-07-13T15:19:26;2.88;;;1.60;;
41263;SDS011;26998;48.714;9.414;2023-07-13T15:21:55;3.70;;;1.52;;
41263;SDS011;26998;48.714;9.414;2023-07-13T15:24:23;8.20;;;1.60;;
41263;SDS011;26998;48.714;9.414;2023-07-13T15:26:49;3.13;;;1.65;;
41263;SDS011;26998;48.714;9.414;2023-07-13T15:29:16;5.93;;;1.50;;
41263;SDS011;26998;48.714;9.414;2023-07-13T15:31:43;6.13;;;1.52;;
41263;SDS011;26998;48.714;9.414;2023-07-13T15:34:14;3.50;;;1.48;;
41263;SDS011;26998;48.714;9.414;2023-07-13T15:36:43;3.70;;;1.75;;
41263;SDS011;26998;48.714;9.414;2023-07-13T15:39:13;2.15;;;1.70;;
41263;SDS011;26998;48.714;9.414;2023-07-13T15:41:43;4.72;;;1.65;;
41263;SDS011;26998;48.714;9.414;2023-07-13T15:44:21;4.78;;;1.60;;
41263;SDS011;26998;48.714;9.414;2023-07-13T15:46:49;3.35;;;1.15;;
41263;SDS011;26998;48.714;9.414;2023-07-13T15:49:19;3.05;;;1.60;;
41263;SDS011;26998;48.714;9.414;2023-07-13T15:51:46;6.07;;;2.17;;